createdAt,value
2023-12-30T00:01:16.509Z,17.38
2023-12-30T00:03:45.570Z,17.38
2023-12-30T00:06:13.373Z,17.39
2023-12-30T00:08:42.258Z,17.47
2023-12-30T00:11:09.812Z,17.46
2023-12-30T00:13:38.883Z,17.38
2023-12-30T00:16:07.058Z,17.39
2023-12-30T00:18:34.601Z,17.44
2023-12-30T00:21:02.419Z,17.50
2023-12-30T00:23:37.064Z,17.54
2023-12-30T00:26:09.918Z,17.53
2023-12-30T00:28:37.506Z,17.56
2023-12-30T00:31:05.192Z,17.59
2023-12-30T00:33:33.241Z,17.57
2023-12-30T00:36:00.807Z,17.56
2023-12-30T00:38:28.351Z,17.49
2023-12-30T00:40:55.884Z,17.43
2023-12-30T00:43:24.683Z,17.50
2023-12-30T00:45:52.295Z,17.52
2023-12-30T00:48:19.838Z,17.53
2023-12-30T00:50:47.396Z,17.52
2023-12-30T00:53:14.939Z,17.53
2023-12-30T00:55:42.454Z,17.57
2023-12-30T00:58:10.046Z,17.56
2023-12-30T01:00:38.927Z,17.58
2023-12-30T01:03:06.630Z,17.58
2023-12-30T01:05:34.198Z,17.58
2023-12-30T01:08:01.707Z,17.57
2023-12-30T01:10:29.375Z,17.61
2023-12-30T01:12:56.986Z,17.61
2023-12-30T01:15:24.593Z,17.53
2023-12-30T01:17:53.575Z,17.53
2023-12-30T01:20:20.974Z,17.49
2023-12-30T01:22:48.480Z,17.48
2023-12-30T01:25:16.209Z,17.50
2023-12-30T01:27:43.743Z,17.51
2023-12-30T01:30:12.004Z,17.57
2023-12-30T01:32:39.556Z,17.63
2023-12-30T01:35:08.757Z,17.65
2023-12-30T01:37:36.340Z,17.71
2023-12-30T01:40:04.604Z,17.71
2023-12-30T01:42:32.251Z,17.72
2023-12-30T01:44:59.841Z,17.73
2023-12-30T01:47:27.453Z,17.76
2023-12-30T01:49:55.007Z,17.71
2023-12-30T01:52:23.973Z,17.61
2023-12-30T01:54:51.340Z,17.56
2023-12-30T01:57:18.886Z,17.53
2023-12-30T01:59:46.659Z,17.52
2023-12-30T02:02:14.606Z,17.55
2023-12-30T02:04:42.164Z,17.59
2023-12-30T02:07:09.874Z,17.60
2023-12-30T02:09:38.994Z,17.53
2023-12-30T02:12:07.511Z,17.52
2023-12-30T02:14:35.268Z,17.59
2023-12-30T02:17:02.822Z,17.62
2023-12-30T02:19:30.369Z,17.63
2023-12-30T02:21:57.956Z,17.55
2023-12-30T02:24:26.954Z,17.47
2023-12-30T02:26:54.304Z,17.49
2023-12-30T02:29:21.938Z,17.48
2023-12-30T02:31:49.640Z,17.52
2023-12-30T02:34:18.240Z,17.51
2023-12-30T02:36:46.301Z,17.50
2023-12-30T02:39:13.939Z,17.52
2023-12-30T02:41:42.997Z,17.42
2023-12-30T02:44:10.365Z,17.39
2023-12-30T02:46:38.055Z,17.28
2023-12-30T02:49:06.500Z,17.22
2023-12-30T02:51:34.176Z,17.21
2023-12-30T02:54:01.711Z,17.18
2023-12-30T02:56:29.278Z,17.14
2023-12-30T02:58:59.192Z,17.22
2023-12-30T03:01:27.298Z,17.30
2023-12-30T03:03:55.312Z,17.28
2023-12-30T03:06:23.257Z,17.32
2023-12-30T03:08:50.881Z,17.37
2023-12-30T03:11:18.503Z,17.42
2023-12-30T03:13:46.112Z,17.48
2023-12-30T03:16:15.905Z,17.51
2023-12-30T03:18:43.653Z,17.50
2023-12-30T03:21:12.459Z,17.52
2023-12-30T03:23:40.010Z,17.54
2023-12-30T03:26:09.006Z,17.56
2023-12-30T03:28:36.541Z,17.55
2023-12-30T03:31:04.335Z,17.56
2023-12-30T03:33:33.283Z,17.58
2023-12-30T03:36:00.843Z,17.58
2023-12-30T03:38:28.375Z,17.59
2023-12-30T03:40:58.056Z,17.59
2023-12-30T03:43:25.629Z,17.59
2023-12-30T03:45:53.196Z,17.61
2023-12-30T03:48:20.968Z,17.59
2023-12-30T03:50:49.934Z,17.62
2023-12-30T03:53:17.483Z,17.63
2023-12-30T03:55:45.063Z,17.67
2023-12-30T03:58:12.732Z,17.70
2023-12-30T04:00:40.250Z,17.73
2023-12-30T04:03:07.772Z,17.76
2023-12-30T04:05:35.509Z,17.76
2023-12-30T04:08:04.889Z,17.78
2023-12-30T04:10:32.458Z,17.81
2023-12-30T04:13:00.289Z,17.83
2023-12-30T04:15:28.081Z,17.84
2023-12-30T04:17:55.616Z,17.84
2023-12-30T04:20:23.110Z,17.84
2023-12-30T04:22:50.600Z,17.88
2023-12-30T04:25:19.544Z,17.91
2023-12-30T04:27:47.100Z,17.90
2023-12-30T04:30:15.291Z,17.90
2023-12-30T04:32:42.934Z,17.90
2023-12-30T04:35:10.573Z,17.91
2023-12-30T04:37:38.121Z,17.93
2023-12-30T04:40:06.734Z,17.92
2023-12-30T04:42:35.586Z,17.95
2023-12-30T04:45:04.005Z,17.96
2023-12-30T04:47:31.690Z,17.96
2023-12-30T04:49:59.431Z,17.95
2023-12-30T04:52:27.091Z,17.95
2023-12-30T04:54:54.634Z,17.93
2023-12-30T04:57:22.170Z,17.92
2023-12-30T04:59:51.005Z,17.90
2023-12-30T05:02:18.509Z,17.90
2023-12-30T05:04:46.001Z,17.91
2023-12-30T05:07:13.842Z,17.89
2023-12-30T05:09:41.399Z,17.90
2023-12-30T05:12:09.087Z,17.91
2023-12-30T05:14:38.479Z,17.84
2023-12-30T05:17:07.506Z,17.83
2023-12-30T05:19:35.433Z,17.80
2023-12-30T05:22:03.165Z,17.81
2023-12-30T05:24:30.777Z,17.82
2023-12-30T05:26:58.334Z,17.83
2023-12-30T05:29:25.975Z,17.82
2023-12-30T05:31:53.600Z,17.85
2023-12-30T05:34:22.647Z,17.90
2023-12-30T05:36:50.435Z,17.91
2023-12-30T05:39:17.975Z,17.90
2023-12-30T05:41:45.503Z,17.89
2023-12-30T05:44:13.104Z,17.88
2023-12-30T05:46:40.617Z,17.86
2023-12-30T05:49:08.615Z,17.86
2023-12-30T05:51:42.635Z,17.86
2023-12-30T05:54:10.548Z,17.91
2023-12-30T05:56:38.056Z,17.93
2023-12-30T05:59:05.609Z,17.96
2023-12-30T06:01:33.298Z,17.97
2023-12-30T06:04:00.989Z,17.95
2023-12-30T06:06:30.553Z,17.88
2023-12-30T06:09:01.127Z,17.82
2023-12-30T06:11:28.483Z,17.80
2023-12-30T06:13:55.969Z,17.79
2023-12-30T06:16:23.548Z,17.75
2023-12-30T06:18:51.206Z,17.72
2023-12-30T06:21:18.841Z,17.78
2023-12-30T06:23:46.584Z,17.80
2023-12-30T06:26:15.464Z,17.82
2023-12-30T06:28:44.067Z,17.85
2023-12-30T06:31:12.155Z,17.85
2023-12-30T06:33:39.950Z,17.81
2023-12-30T06:36:08.824Z,17.88
2023-12-30T06:38:36.545Z,17.93
2023-12-30T06:41:07.545Z,17.97
2023-12-30T06:43:36.413Z,17.95
2023-12-30T06:46:05.290Z,17.93
2023-12-30T06:48:32.893Z,17.94
2023-12-30T06:51:02.682Z,17.92
2023-12-30T06:53:31.942Z,17.93
2023-12-30T06:56:01.836Z,17.92
2023-12-30T06:58:29.456Z,17.91
2023-12-30T07:00:58.550Z,17.91
2023-12-30T07:03:26.229Z,17.90
2023-12-30T07:05:53.815Z,17.90
2023-12-30T07:08:21.754Z,17.93
2023-12-30T07:10:49.267Z,17.99
2023-12-30T07:13:16.826Z,18.03
2023-12-30T07:15:44.393Z,18.06
2023-12-30T07:18:15.748Z,18.06
2023-12-30T07:20:43.300Z,18.07
2023-12-30T07:23:10.822Z,18.04
2023-12-30T07:25:38.405Z,17.92
2023-12-30T07:28:06.371Z,17.73
2023-12-30T07:30:34.043Z,17.60
2023-12-30T07:33:01.846Z,17.51
2023-12-30T07:35:31.000Z,17.39
2023-12-30T07:37:58.449Z,17.30
2023-12-30T07:40:26.154Z,17.37
2023-12-30T07:42:53.795Z,17.42
2023-12-30T07:45:21.347Z,17.39
2023-12-30T07:47:49.629Z,17.45
2023-12-30T07:50:17.161Z,17.47
2023-12-30T07:52:45.990Z,17.46
2023-12-30T07:55:13.601Z,17.46
2023-12-30T07:57:41.097Z,17.48
2023-12-30T08:00:09.664Z,17.51
2023-12-30T08:02:37.177Z,17.53
2023-12-30T08:05:05.004Z,17.57
2023-12-30T08:07:32.833Z,17.59
2023-12-30T08:10:01.790Z,17.63
2023-12-30T08:12:29.380Z,17.64
2023-12-30T08:14:56.938Z,17.65
2023-12-30T08:17:24.660Z,17.69
2023-12-30T08:19:52.262Z,17.71
2023-12-30T08:22:20.435Z,17.72
2023-12-30T08:24:48.026Z,17.69
2023-12-30T08:27:16.867Z,17.71
2023-12-30T08:29:44.368Z,17.71
2023-12-30T08:32:11.875Z,17.70
2023-12-30T08:34:39.744Z,17.70
2023-12-30T08:37:09.821Z,17.72
2023-12-30T08:39:38.294Z,17.73
2023-12-30T08:42:06.445Z,17.76
2023-12-30T08:44:38.897Z,17.73
2023-12-30T08:47:07.249Z,17.71
2023-12-30T08:49:34.993Z,17.47
2023-12-30T08:52:02.601Z,17.28
2023-12-30T08:54:30.146Z,17.05
2023-12-30T08:56:57.762Z,16.58
2023-12-30T08:59:25.685Z,16.29
2023-12-30T09:01:54.623Z,16.32
2023-12-30T09:04:22.526Z,16.19
2023-12-30T09:06:50.165Z,16.18
2023-12-30T09:09:17.653Z,16.18
2023-12-30T09:11:46.125Z,16.20
2023-12-30T09:14:14.435Z,16.21
2023-12-30T09:16:42.323Z,16.21
2023-12-30T09:19:11.298Z,16.22
2023-12-30T09:21:38.703Z,16.27
2023-12-30T09:24:06.959Z,16.32
2023-12-30T09:26:34.441Z,16.15
2023-12-30T09:29:01.952Z,16.18
2023-12-30T09:31:29.550Z,16.15
2023-12-30T09:33:56.929Z,16.05
2023-12-30T09:36:25.872Z,16.24
2023-12-30T09:38:53.360Z,16.34
2023-12-30T09:41:21.274Z,16.39
2023-12-30T09:43:48.927Z,16.48
2023-12-30T09:46:16.636Z,16.52
2023-12-30T09:48:45.187Z,16.37
2023-12-30T09:51:13.108Z,16.10
2023-12-30T09:53:41.999Z,16.03
2023-12-30T09:56:09.548Z,16.07
2023-12-30T09:58:37.133Z,16.19
2023-12-30T10:01:06.013Z,16.49
2023-12-30T10:03:33.716Z,16.72
2023-12-30T10:06:02.458Z,16.89
2023-12-30T10:08:30.047Z,17.01
2023-12-30T10:10:59.136Z,17.18
2023-12-30T10:13:28.246Z,17.28
2023-12-30T10:15:59.935Z,17.35
2023-12-30T10:18:28.099Z,17.39
2023-12-30T10:20:56.765Z,17.45
2023-12-30T10:23:25.127Z,17.46
2023-12-30T10:25:52.670Z,17.45
2023-12-30T10:28:21.663Z,17.43
2023-12-30T10:30:49.663Z,17.37
2023-12-30T10:33:18.418Z,17.35
2023-12-30T10:35:46.987Z,17.27
2023-12-30T10:38:15.340Z,17.29
2023-12-30T10:40:44.564Z,17.32
2023-12-30T10:43:12.641Z,17.34
2023-12-30T10:45:41.647Z,17.37
2023-12-30T10:48:09.724Z,17.29
2023-12-30T10:50:38.738Z,17.32
2023-12-30T10:53:09.259Z,17.27
2023-12-30T10:55:37.399Z,17.23
2023-12-30T10:58:05.686Z,17.19
2023-12-30T11:00:36.480Z,17.17
2023-12-30T11:03:06.169Z,17.11
2023-12-30T11:05:37.070Z,17.09
2023-12-30T11:08:05.676Z,17.06
2023-12-30T11:10:34.240Z,17.09
2023-12-30T11:13:02.373Z,17.10
2023-12-30T11:15:31.093Z,17.10
2023-12-30T11:17:59.310Z,17.06
2023-12-30T11:20:29.322Z,17.11
2023-12-30T11:23:09.210Z,17.10
2023-12-30T11:25:37.236Z,17.06
2023-12-30T11:28:15.501Z,17.05
2023-12-30T11:30:45.044Z,16.99
2023-12-30T11:33:12.771Z,16.95
2023-12-30T11:35:41.786Z,17.00
2023-12-30T11:38:09.488Z,17.06
2023-12-30T11:40:44.548Z,17.08
2023-12-30T11:43:12.407Z,17.02
2023-12-30T11:45:39.986Z,16.97
2023-12-30T11:48:08.176Z,16.82
2023-12-30T11:50:35.721Z,16.84
2023-12-30T11:53:05.136Z,16.80
2023-12-30T11:55:32.899Z,16.86
2023-12-30T11:58:00.477Z,16.92
2023-12-30T12:00:28.244Z,16.98
2023-12-30T12:02:57.226Z,16.92
2023-12-30T12:05:24.978Z,16.75
2023-12-30T12:07:52.475Z,16.85
2023-12-30T12:10:21.409Z,16.94
2023-12-30T12:12:49.519Z,16.96
2023-12-30T12:15:17.122Z,16.94
2023-12-30T12:17:44.788Z,16.92
2023-12-30T12:20:12.654Z,16.98
2023-12-30T12:22:40.438Z,16.94
2023-12-30T12:25:09.017Z,16.89
2023-12-30T12:27:38.041Z,16.86
2023-12-30T12:30:06.997Z,16.93
2023-12-30T12:32:35.309Z,16.93
2023-12-30T12:35:03.054Z,16.97
2023-12-30T12:37:30.754Z,17.08
2023-12-30T12:39:58.300Z,17.17
2023-12-30T12:42:30.733Z,17.28
2023-12-30T12:45:00.382Z,17.36
2023-12-30T12:47:27.978Z,17.43
2023-12-30T12:49:55.714Z,17.50
2023-12-30T12:52:23.302Z,17.50
2023-12-30T12:54:51.260Z,17.56
2023-12-30T12:57:18.808Z,17.63
2023-12-30T12:59:46.357Z,17.64
2023-12-30T13:04:43.476Z,17.63
2023-12-30T13:07:12.447Z,17.59
2023-12-30T13:09:53.987Z,17.59
2023-12-30T13:12:21.562Z,17.55
2023-12-30T13:14:49.651Z,17.59
2023-12-30T13:17:19.211Z,17.51
2023-12-30T13:19:47.133Z,17.48
2023-12-30T13:22:14.750Z,17.44
2023-12-30T13:24:42.338Z,17.38
2023-12-30T13:27:10.680Z,17.31
2023-12-30T13:29:38.398Z,17.29
2023-12-30T13:32:06.619Z,17.35
2023-12-30T13:34:35.875Z,17.43
2023-12-30T13:37:06.863Z,17.51
2023-12-30T13:39:35.917Z,17.58
2023-12-30T13:42:05.804Z,17.48
2023-12-30T13:44:36.852Z,17.48
2023-12-30T13:47:25.564Z,17.49
2023-12-30T13:50:11.413Z,17.43
2023-12-30T13:52:39.116Z,17.39
2023-12-30T13:55:07.899Z,17.41
2023-12-30T13:57:38.225Z,17.35
2023-12-30T14:00:07.997Z,17.36
2023-12-30T14:02:39.668Z,17.35
2023-12-30T14:05:17.095Z,17.21
2023-12-30T14:07:44.980Z,17.27
2023-12-30T14:12:46.964Z,17.34
2023-12-30T14:15:14.834Z,17.36
2023-12-30T14:17:44.065Z,17.28
2023-12-30T14:20:14.374Z,17.17
2023-12-30T14:22:42.336Z,17.17
2023-12-30T14:25:12.348Z,17.22
2023-12-30T14:27:41.353Z,17.28
2023-12-30T14:30:12.716Z,17.25
2023-12-30T14:32:42.537Z,17.23
2023-12-30T14:35:11.449Z,17.24
2023-12-30T14:37:40.886Z,17.28
2023-12-30T14:40:09.827Z,17.26
2023-12-30T14:42:37.436Z,17.26
2023-12-30T14:45:07.413Z,17.27
2023-12-30T14:47:36.451Z,17.31
2023-12-30T14:50:06.932Z,17.38
2023-12-30T14:52:34.515Z,17.42
2023-12-30T14:55:07.105Z,17.44
2023-12-30T14:57:34.600Z,17.42
2023-12-30T15:00:02.086Z,17.41
2023-12-30T15:02:29.666Z,17.35
2023-12-30T15:04:57.240Z,17.35
2023-12-30T15:07:26.466Z,17.35
2023-12-30T15:09:53.984Z,17.36
2023-12-30T15:12:24.543Z,17.38
2023-12-30T15:14:52.132Z,17.38
2023-12-30T15:17:19.734Z,17.38
2023-12-30T15:19:47.323Z,17.42
2023-12-30T15:22:15.097Z,17.46
2023-12-30T15:24:42.649Z,17.49
2023-12-30T15:27:10.288Z,17.44
2023-12-30T15:29:39.269Z,17.38
2023-12-30T15:32:07.453Z,17.39
2023-12-30T15:34:37.787Z,16.94
2023-12-30T15:37:05.385Z,17.08
2023-12-30T15:39:32.871Z,17.15
2023-12-30T15:42:00.591Z,17.19
2023-12-30T15:44:33.197Z,17.25
2023-12-30T15:47:02.093Z,17.29
2023-12-30T15:49:29.810Z,17.29
2023-12-30T15:51:57.500Z,17.36
2023-12-30T15:54:25.011Z,17.33
2023-12-30T15:56:53.254Z,17.28
2023-12-30T15:59:20.764Z,17.28
2023-12-30T16:01:48.388Z,17.32
2023-12-30T16:04:17.326Z,17.32
2023-12-30T16:06:45.905Z,17.28
2023-12-30T16:09:13.451Z,17.21
2023-12-30T16:11:41.057Z,17.21
2023-12-30T16:14:10.940Z,17.15
2023-12-30T16:16:40.464Z,17.02
2023-12-30T16:19:09.819Z,16.96
2023-12-30T16:21:38.837Z,16.87
2023-12-30T16:24:07.131Z,16.82
2023-12-30T16:26:34.631Z,16.77
2023-12-30T16:29:03.395Z,16.39
2023-12-30T16:31:30.969Z,16.01
2023-12-30T16:33:58.629Z,15.83
2023-12-30T16:36:26.454Z,15.71
2023-12-30T16:38:55.805Z,15.77
2023-12-30T16:41:23.739Z,15.58
2023-12-30T16:43:51.480Z,15.50
2023-12-30T16:46:19.763Z,15.68
2023-12-30T16:48:47.497Z,16.04
2023-12-30T16:51:15.460Z,16.26
2023-12-30T16:53:43.258Z,16.41
2023-12-30T16:56:12.092Z,16.54
2023-12-30T16:58:40.878Z,16.64
2023-12-30T17:01:08.548Z,16.67
2023-12-30T17:03:36.797Z,16.70
2023-12-30T17:06:04.833Z,16.71
2023-12-30T17:08:32.336Z,16.77
2023-12-30T17:10:59.888Z,16.73
2023-12-30T17:13:35.237Z,16.79
2023-12-30T17:16:07.910Z,16.77
2023-12-30T17:18:35.697Z,16.76
2023-12-30T17:21:03.444Z,16.77
2023-12-30T17:23:30.967Z,16.72
2023-12-30T17:25:58.540Z,16.52
2023-12-30T17:28:26.074Z,16.49
2023-12-30T17:30:55.446Z,16.56
2023-12-30T17:33:23.037Z,16.56
2023-12-30T17:35:50.996Z,16.55
2023-12-30T17:38:18.948Z,16.59
2023-12-30T17:40:46.554Z,16.67
2023-12-30T17:43:14.141Z,16.75
2023-12-30T17:45:41.678Z,16.83
2023-12-30T17:48:11.628Z,16.86
2023-12-30T17:50:39.727Z,16.89
2023-12-30T17:53:08.295Z,16.95
2023-12-30T17:55:35.852Z,17.01
2023-12-30T17:58:03.462Z,17.09
2023-12-30T18:00:31.061Z,17.12
2023-12-30T18:02:58.601Z,17.20
2023-12-30T18:05:27.491Z,17.27
2023-12-30T18:07:55.096Z,17.33
2023-12-30T18:10:23.051Z,17.33
2023-12-30T18:12:51.462Z,17.37
2023-12-30T18:15:19.083Z,17.38
2023-12-30T18:17:46.964Z,17.42
2023-12-30T18:20:18.790Z,17.43
2023-12-30T18:22:48.117Z,17.47
2023-12-30T18:25:15.787Z,17.51
2023-12-30T18:27:43.330Z,17.53
2023-12-30T18:30:13.108Z,17.52
2023-12-30T18:32:40.837Z,17.57
2023-12-30T18:35:08.701Z,17.54
2023-12-30T18:37:36.321Z,17.51
2023-12-30T18:40:07.991Z,17.56
2023-12-30T18:42:35.587Z,17.62
2023-12-30T18:45:03.797Z,17.70
2023-12-30T18:47:31.476Z,17.62
2023-12-30T18:49:59.374Z,17.66
2023-12-30T18:52:27.229Z,17.66
2023-12-30T18:54:55.469Z,17.70
2023-12-30T18:57:24.333Z,17.75
2023-12-30T18:59:51.838Z,17.73
2023-12-30T19:02:19.365Z,17.82
2023-12-30T19:04:47.037Z,17.83
2023-12-30T19:07:14.627Z,17.83
2023-12-30T19:09:42.161Z,17.80
2023-12-30T19:12:10.002Z,17.78
2023-12-30T19:14:38.869Z,17.86
2023-12-30T19:17:06.434Z,17.81
2023-12-30T19:19:33.984Z,17.74
2023-12-30T19:22:01.650Z,17.82
2023-12-30T19:24:29.177Z,17.76
2023-12-30T19:26:56.709Z,17.83
2023-12-30T19:29:24.201Z,17.84
2023-12-30T19:31:53.037Z,17.84
2023-12-30T19:34:20.633Z,17.91
2023-12-30T19:36:48.416Z,17.89
2023-12-30T19:39:15.976Z,17.91
2023-12-30T19:41:43.894Z,17.97
2023-12-30T19:44:11.802Z,17.96
2023-12-30T19:46:39.505Z,17.98
2023-12-30T19:49:08.632Z,17.95
2023-12-30T19:51:36.181Z,17.84
2023-12-30T19:54:03.804Z,17.84
2023-12-30T19:56:31.377Z,17.78
2023-12-30T19:58:58.939Z,17.81
2023-12-30T20:01:26.519Z,17.84
2023-12-30T20:03:54.176Z,17.94
2023-12-30T20:06:23.114Z,17.88
2023-12-30T20:08:50.812Z,17.95
2023-12-30T20:11:18.595Z,17.95
2023-12-30T20:13:47.026Z,18.02
2023-12-30T20:16:14.628Z,17.98
2023-12-30T20:18:42.620Z,18.00
2023-12-30T20:21:11.021Z,18.03
2023-12-30T20:23:40.248Z,18.12
2023-12-30T20:26:09.072Z,18.10
2023-12-30T20:28:36.725Z,18.06
2023-12-30T20:31:05.506Z,18.02
2023-12-30T20:33:33.281Z,17.99
2023-12-30T20:36:01.533Z,18.00
2023-12-30T20:38:29.040Z,18.08
2023-12-30T20:40:57.984Z,18.10
2023-12-30T20:43:25.369Z,18.11
2023-12-30T20:45:52.906Z,18.18
2023-12-30T20:48:20.472Z,18.21
2023-12-30T20:50:48.213Z,18.17
2023-12-30T20:53:17.184Z,18.18
2023-12-30T20:58:13.464Z,18.17
2023-12-30T21:00:41.051Z,18.22
2023-12-30T21:03:08.620Z,18.21
2023-12-30T21:05:36.210Z,18.23
2023-12-30T21:10:31.425Z,18.23
2023-12-30T21:12:59.011Z,18.31
2023-12-30T21:15:27.880Z,18.31
2023-12-30T21:17:55.774Z,18.30
2023-12-30T21:20:23.437Z,18.21
2023-12-30T21:22:51.094Z,18.26
2023-12-30T21:25:26.140Z,18.18
2023-12-30T21:27:54.905Z,18.25
2023-12-30T21:30:23.829Z,18.30
2023-12-30T21:32:53.291Z,18.32
2023-12-30T21:35:20.930Z,18.35
2023-12-30T21:37:48.897Z,18.32
2023-12-30T21:40:17.557Z,18.37
2023-12-30T21:42:45.076Z,18.34
2023-12-30T21:45:12.994Z,18.38
2023-12-30T21:47:40.571Z,18.33
2023-12-30T21:50:10.878Z,18.30
2023-12-30T21:52:39.573Z,18.27
2023-12-30T21:55:07.961Z,18.38
2023-12-30T21:57:35.577Z,18.30
2023-12-30T22:00:05.145Z,18.34
2023-12-30T22:02:32.696Z,18.31
2023-12-30T22:05:00.377Z,18.33
2023-12-30T22:07:29.362Z,18.32
2023-12-30T22:09:56.890Z,18.34
2023-12-30T22:12:24.396Z,18.28
2023-12-30T22:14:51.912Z,18.25
2023-12-30T22:17:19.439Z,18.15
2023-12-30T22:19:48.327Z,18.09
2023-12-30T22:22:15.767Z,18.05
2023-12-30T22:24:44.623Z,17.97
2023-12-30T22:27:12.109Z,17.91
2023-12-30T22:29:39.632Z,17.83
2023-12-30T22:32:07.382Z,17.73
2023-12-30T22:34:34.997Z,17.62
2023-12-30T22:37:02.947Z,17.52
2023-12-30T22:39:30.541Z,17.39
2023-12-30T22:41:59.724Z,17.27
2023-12-30T22:44:27.216Z,17.17
2023-12-30T22:46:54.782Z,17.15
2023-12-30T22:49:22.512Z,17.09
2023-12-30T22:51:50.640Z,17.07
2023-12-30T22:54:18.722Z,17.06
2023-12-30T22:56:46.515Z,17.08
2023-12-30T22:59:16.415Z,17.15
2023-12-30T23:01:44.108Z,17.21
2023-12-30T23:04:11.823Z,17.25
2023-12-30T23:06:39.332Z,17.28
2023-12-30T23:09:07.046Z,17.40
2023-12-30T23:11:34.528Z,17.47
2023-12-30T23:14:02.152Z,17.48
2023-12-30T23:16:31.080Z,17.53
2023-12-30T23:18:58.786Z,17.56
2023-12-30T23:21:30.144Z,17.60
2023-12-30T23:23:57.645Z,17.61
2023-12-30T23:26:25.422Z,17.61
2023-12-30T23:28:54.583Z,17.63
2023-12-30T23:31:22.209Z,17.66
2023-12-30T23:33:51.143Z,17.66
2023-12-30T23:36:18.673Z,17.64
2023-12-30T23:38:46.682Z,17.53
2023-12-30T23:41:15.174Z,17.63
2023-12-30T23:43:42.969Z,17.62
2023-12-30T23:46:10.575Z,17.56
2023-12-30T23:48:38.104Z,17.52
2023-12-30T23:51:07.131Z,17.51
2023-12-30T23:53:36.175Z,17.53
2023-12-30T23:56:05.430Z,17.65
2023-12-30T23:58:33.089Z,17.67
